Time;durP1;ratioP1;P1;durP2;ratioP2;P2;SDS_P1;SDS_P2;PMS_P1;PMS_P2;Temp;Humidity;BMP_temperature;BMP_pressure;BME280_temperature;BME280_humidity;BME280_pressure;Samples;Min_cycle;Max_cycle;Signal;HPM_P1;HPM_P2
2022/07/17 00:01:40;;;;;;;4.63;2.60;;;;;;;;;;5029770;28;20427;-71
2022/07/17 00:04:07;;;;;;;3.47;2.20;;;;;;;;;;5030564;28;20425;-72
2022/07/17 00:06:34;;;;;;;4.03;1.92;;;;;;;;;;5030526;28;20514;-71
2022/07/17 00:09:01;;;;;;;2.90;2.00;;;;;;;;;;5030142;28;20481;-72
2022/07/17 00:11:28;;;;;;;3.30;1.90;;;;;;;;;;5028333;28;20419;-71
2022/07/17 00:13:55;;;;;;;3.40;1.77;;;;;;;;;;5030479;28;20415;-71
2022/07/17 00:16:24;;;;;;;3.33;1.70;;;;;;;;;;5029984;28;20493;-72
2022/07/17 00:18:51;;;;;;;3.65;2.20;;;;;;;;;;5030329;28;20493;-73
2022/07/17 00:21:18;;;;;;;3.97;2.40;;;;;;;;;;5029084;28;20518;-70
2022/07/17 00:23:46;;;;;;;3.97;2.17;;;;;;;;;;5029776;28;20415;-72
2022/07/17 00:26:13;;;;;;;3.35;1.80;;;;;;;;;;5029683;28;20525;-71
2022/07/17 00:28:40;;;;;;;2.70;1.58;;;;;;;;;;5030249;28;20421;-72
2022/07/17 00:31:07;;;;;;;3.60;1.90;;;;;;;;;;5028784;28;20415;-72
2022/07/17 00:33:36;;;;;;;3.17;1.60;;;;;;;;;;5010624;28;20412;-71
2022/07/17 00:36:03;;;;;;;5.38;1.98;;;;;;;;;;5010232;28;20409;-72
2022/07/17 00:38:30;;;;;;;2.50;1.60;;;;;;;;;;5010641;28;20790;-71
2022/07/17 00:40:58;;;;;;;4.40;1.90;;;;;;;;;;5007385;28;20503;-71
2022/07/17 00:43:26;;;;;;;2.80;1.80;;;;;;;;;;5010466;28;20478;-70
2022/07/17 00:45:57;;;;;;;3.42;2.25;;;;;;;;;;5009804;28;20449;-71
2022/07/17 00:48:25;;;;;;;3.67;2.00;;;;;;;;;;5011310;28;20408;-71
2022/07/17 00:50:53;;;;;;;3.38;1.80;;;;;;;;;;5009779;28;20432;-71
2022/07/17 00:53:21;;;;;;;3.92;2.00;;;;;;;;;;5011179;28;20409;-71
2022/07/17 00:55:49;;;;;;;3.75;1.88;;;;;;;;;;5009871;28;20799;-72
2022/07/17 00:58:20;;;;;;;3.85;1.80;;;;;;;;;;5042410;23;20626;-71
2022/07/17 01:00:47;;;;;;;2.03;1.70;;;;;;;;;;5045302;28;20439;-71
2022/07/17 01:03:15;;;;;;;2.92;1.70;;;;;;;;;;5048167;28;20431;-71
2022/07/17 01:05:42;;;;;;;4.00;2.20;;;;;;;;;;5046942;28;20487;-71
2022/07/17 01:08:11;;;;;;;4.05;2.10;;;;;;;;;;5047418;28;20865;-71
2022/07/17 01:10:38;;;;;;;3.00;2.05;;;;;;;;;;5046572;28;20413;-71
2022/07/17 01:13:06;;;;;;;4.03;2.00;;;;;;;;;;5047596;28;20417;-71
2022/07/17 01:15:33;;;;;;;4.47;2.00;;;;;;;;;;5047481;28;20451;-72
2022/07/17 01:18:00;;;;;;;2.80;2.00;;;;;;;;;;5047485;28;20785;-72
2022/07/17 01:20:27;;;;;;;4.72;2.50;;;;;;;;;;5046976;28;20421;-71
2022/07/17 01:22:57;;;;;;;5.13;2.17;;;;;;;;;;5047638;28;20493;-72
2022/07/17 01:25:25;;;;;;;2.83;2.10;;;;;;;;;;5046700;28;20498;-71
2022/07/17 01:27:52;;;;;;;3.97;1.90;;;;;;;;;;5047477;28;20452;-71
2022/07/17 01:30:19;;;;;;;3.22;1.92;;;;;;;;;;5046899;28;20422;-71
2022/07/17 01:32:46;;;;;;;3.03;1.90;;;;;;;;;;5047177;28;20421;-72
2022/07/17 01:35:14;;;;;;;4.40;1.90;;;;;;;;;;5047407;28;20520;-72
2022/07/17 01:37:42;;;;;;;4.18;2.10;;;;;;;;;;5048027;28;20715;-71
2022/07/17 01:40:12;;;;;;;4.70;2.10;;;;;;;;;;5046780;28;20416;-71
2022/07/17 01:42:40;;;;;;;4.10;2.20;;;;;;;;;;5047520;28;20485;-71
2022/07/17 01:45:08;;;;;;;3.47;1.90;;;;;;;;;;5047282;28;20455;-71
2022/07/17 01:47:35;;;;;;;2.40;1.70;;;;;;;;;;5047062;28;20942;-71
2022/07/17 01:50:02;;;;;;;3.80;2.38;;;;;;;;;;5046887;28;20413;-70
2022/07/17 01:52:30;;;;;;;3.30;1.70;;;;;;;;;;5047062;28;20461;-71
2022/07/17 01:54:57;;;;;;;2.40;1.60;;;;;;;;;;5046350;28;20854;-71
2022/07/17 01:57:25;;;;;;;3.53;1.92;;;;;;;;;;5047360;28;20452;-72
2022/07/17 01:59:52;;;;;;;2.95;1.80;;;;;;;;;;5046153;28;20781;-71
2022/07/17 02:02:19;;;;;;;3.00;1.70;;;;;;;;;;5046714;28;20413;-72
2022/07/17 02:04:47;;;;;;;2.40;2.00;;;;;;;;;;5046544;28;20465;-71
2022/07/17 02:07:14;;;;;;;2.50;1.70;;;;;;;;;;5046774;28;20452;-71
2022/07/17 02:09:41;;;;;;;3.25;1.70;;;;;;;;;;5046185;28;20412;-71
2022/07/17 02:12:08;;;;;;;3.50;1.90;;;;;;;;;;5046328;28;20413;-72
2022/07/17 02:14:37;;;;;;;3.63;1.80;;;;;;;;;;5046409;28;20793;-71
2022/07/17 02:17:04;;;;;;;3.70;2.20;;;;;;;;;;5046532;28;20413;-71
2022/07/17 02:19:31;;;;;;;3.20;1.95;;;;;;;;;;5046652;28;20409;-71
2022/07/17 02:21:58;;;;;;;2.70;2.07;;;;;;;;;;5046138;28;20412;-72
2022/07/17 02:24:25;;;;;;;4.20;2.20;;;;;;;;;;5045699;28;20903;-72
2022/07/17 02:26:52;;;;;;;3.17;2.40;;;;;;;;;;5046699;28;20425;-71
2022/07/17 02:29:19;;;;;;;4.70;2.50;;;;;;;;;;5046071;28;20424;-71
2022/07/17 02:31:48;;;;;;;4.75;2.40;;;;;;;;;;5046247;28;20425;-71
2022/07/17 02:34:15;;;;;;;3.30;2.30;;;;;;;;;;5046156;28;20486;-73
2022/07/17 02:36:42;;;;;;;5.03;2.30;;;;;;;;;;5046131;28;20741;-71
2022/07/17 02:39:09;;;;;;;3.95;2.90;;;;;;;;;;5046113;28;20836;-71
2022/07/17 02:41:36;;;;;;;4.55;2.67;;;;;;;;;;5045526;28;20420;-71
2022/07/17 02:44:03;;;;;;;3.15;2.60;;;;;;;;;;5046286;28;20424;-70
2022/07/17 02:46:31;;;;;;;3.38;2.30;;;;;;;;;;5046190;28;20429;-73
2022/07/17 02:48:59;;;;;;;3.53;2.45;;;;;;;;;;5046198;28;20449;-71
2022/07/17 02:51:26;;;;;;;3.20;2.60;;;;;;;;;;5045519;28;20976;-71
2022/07/17 02:53:53;;;;;;;3.42;2.53;;;;;;;;;;5046223;28;20417;-70
2022/07/17 02:56:20;;;;;;;4.20;2.40;;;;;;;;;;5045505;28;20440;-71
2022/07/17 02:58:48;;;;;;;4.45;3.05;;;;;;;;;;5045582;28;20444;-71
2022/07/17 03:01:15;;;;;;;3.72;3.13;;;;;;;;;;5045670;28;20872;-73
2022/07/17 03:03:42;;;;;;;4.75;2.92;;;;;;;;;;5045681;28;20431;-73
2022/07/17 03:06:11;;;;;;;4.00;3.33;;;;;;;;;;5049638;28;20413;-73
2022/07/17 03:08:38;;;;;;;6.30;3.60;;;;;;;;;;5050025;28;20428;-72
2022/07/17 03:11:05;;;;;;;8.05;3.10;;;;;;;;;;5049203;28;20413;-73
2022/07/17 03:13:32;;;;;;;2.70;2.50;;;;;;;;;;5050246;28;20416;-72
2022/07/17 03:15:59;;;;;;;5.00;3.30;;;;;;;;;;5049673;28;20561;-72
2022/07/17 03:18:26;;;;;;;5.25;2.88;;;;;;;;;;5049688;28;20428;-72
2022/07/17 03:20:53;;;;;;;4.20;2.90;;;;;;;;;;5049211;28;20413;-73
2022/07/17 03:23:22;;;;;;;5.20;3.30;;;;;;;;;;5049591;28;20420;-71
2022/07/17 03:25:49;;;;;;;4.75;3.00;;;;;;;;;;5049025;28;20417;-72
2022/07/17 03:28:16;;;;;;;4.28;3.10;;;;;;;;;;5049724;28;20429;-72
2022/07/17 03:30:43;;;;;;;3.92;3.17;;;;;;;;;;5048800;28;20417;-72
2022/07/17 03:33:10;;;;;;;4.88;2.97;;;;;;;;;;5049406;28;20896;-72
2022/07/17 03:35:37;;;;;;;4.60;3.20;;;;;;;;;;5049395;28;20417;-72
2022/07/17 03:38:04;;;;;;;4.38;3.10;;;;;;;;;;5048882;28;20921;-73
2022/07/17 03:40:33;;;;;;;5.25;3.30;;;;;;;;;;5048333;28;20419;-73
2022/07/17 03:43:00;;;;;;;4.28;2.47;;;;;;;;;;5049423;28;20413;-72
2022/07/17 03:45:27;;;;;;;3.38;2.80;;;;;;;;;;5048668;28;20443;-72
2022/07/17 03:47:54;;;;;;;4.13;2.97;;;;;;;;;;5049250;28;20425;-72
2022/07/17 03:50:21;;;;;;;4.70;3.10;;;;;;;;;;5048726;28;20428;-72
2022/07/17 03:52:48;;;;;;;3.65;2.90;;;;;;;;;;5048823;28;20784;-73
2022/07/17 03:55:15;;;;;;;4.90;3.08;;;;;;;;;;5048415;28;20425;-72
2022/07/17 03:57:43;;;;;;;3.95;2.80;;;;;;;;;;5049051;28;20425;-73
2022/07/17 04:00:11;;;;;;;4.68;2.85;;;;;;;;;;5048345;28;20428;-73
2022/07/17 04:02:38;;;;;;;3.80;2.90;;;;;;;;;;5048788;28;20520;-72
2022/07/17 04:05:09;;;;;;;4.15;2.85;;;;;;;;;;5048828;28;20513;-71
2022/07/17 04:07:36;;;;;;;3.40;2.93;;;;;;;;;;5049210;28;20436;-72
2022/07/17 04:10:03;;;;;;;3.80;2.50;;;;;;;;;;5047894;28;20512;-72
2022/07/17 04:12:30;;;;;;;3.70;3.00;;;;;;;;;;5048631;28;20424;-73
2022/07/17 04:14:59;;;;;;;4.15;3.20;;;;;;;;;;5048516;28;20425;-72
2022/07/17 04:17:26;;;;;;;3.40;2.70;;;;;;;;;;5047818;28;20424;-73
2022/07/17 04:19:53;;;;;;;4.10;3.00;;;;;;;;;;5048363;28;20523;-71
2022/07/17 04:22:20;;;;;;;4.10;2.97;;;;;;;;;;5049051;28;20413;-72
2022/07/17 04:24:47;;;;;;;4.40;3.20;;;;;;;;;;5047924;28;20414;-73
2022/07/17 04:27:15;;;;;;;4.65;3.40;;;;;;;;;;5048638;28;20435;-73
2022/07/17 04:29:42;;;;;;;3.90;3.10;;;;;;;;;;5048642;28;20413;-72
2022/07/17 04:32:10;;;;;;;3.40;2.80;;;;;;;;;;5048232;28;20417;-73
2022/07/17 04:34:37;;;;;;;5.07;3.60;;;;;;;;;;5048227;28;20417;-72
2022/07/17 04:37:05;;;;;;;3.80;3.17;;;;;;;;;;5048581;28;20722;-73
2022/07/17 04:39:32;;;;;;;3.83;3.50;;;;;;;;;;5047919;28;20409;-73
2022/07/17 04:41:59;;;;;;;3.55;3.00;;;;;;;;;;5049339;28;20873;-72
2022/07/17 04:44:26;;;;;;;4.38;3.20;;;;;;;;;;5048495;28;20769;-73
2022/07/17 04:46:55;;;;;;;4.60;2.90;;;;;;;;;;5048417;28;20532;-73
2022/07/17 04:49:23;;;;;;;3.80;3.03;;;;;;;;;;5048482;28;20432;-72
2022/07/17 04:51:50;;;;;;;3.73;3.10;;;;;;;;;;5048091;28;20413;-72
2022/07/17 04:54:17;;;;;;;3.53;2.90;;;;;;;;;;5048409;28;20425;-73
2022/07/17 04:56:44;;;;;;;3.97;3.10;;;;;;;;;;5047886;28;20421;-72
2022/07/17 04:59:12;;;;;;;4.10;3.10;;;;;;;;;;5047498;28;20432;-73
2022/07/17 05:01:39;;;;;;;3.75;3.00;;;;;;;;;;5047512;28;20413;-73
2022/07/17 05:04:06;;;;;;;3.90;3.40;;;;;;;;;;5047786;28;20761;-73
2022/07/17 05:06:34;;;;;;;3.25;2.80;;;;;;;;;;5047868;28;20479;-72
2022/07/17 05:09:02;;;;;;;3.80;3.00;;;;;;;;;;5047362;28;20440;-73
2022/07/17 05:11:29;;;;;;;3.67;3.00;;;;;;;;;;5046655;28;20507;-73
2022/07/17 05:13:56;;;;;;;3.70;3.00;;;;;;;;;;5047702;28;20426;-73
2022/07/17 05:16:23;;;;;;;4.00;3.10;;;;;;;;;;5047640;28;20417;-72
2022/07/17 05:18:50;;;;;;;3.83;2.90;;;;;;;;;;5047474;28;20772;-73
2022/07/17 05:21:17;;;;;;;3.80;3.10;;;;;;;;;;5047038;28;20497;-73
2022/07/17 05:23:46;;;;;;;4.15;3.00;;;;;;;;;;5047093;28;20433;-73
2022/07/17 05:26:13;;;;;;;5.05;2.85;;;;;;;;;;5046714;28;20499;-73
2022/07/17 05:28:40;;;;;;;3.85;3.20;;;;;;;;;;5046225;28;20421;-73
2022/07/17 05:31:07;;;;;;;4.57;2.90;;;;;;;;;;5046831;28;20778;-73
2022/07/17 05:33:34;;;;;;;4.40;3.40;;;;;;;;;;5047359;28;20532;-72
2022/07/17 05:36:02;;;;;;;4.50;3.83;;;;;;;;;;5046951;28;20456;-73
2022/07/17 05:38:29;;;;;;;3.63;3.20;;;;;;;;;;5047129;28;20429;-72
2022/07/17 05:40:57;;;;;;;5.30;3.70;;;;;;;;;;5046001;28;20913;-72
2022/07/17 05:43:24;;;;;;;5.25;3.17;;;;;;;;;;5047161;28;20899;-73
2022/07/17 05:45:54;;;;;;;4.03;3.20;;;;;;;;;;5046618;28;20422;-72
2022/07/17 05:48:21;;;;;;;4.38;3.45;;;;;;;;;;5046853;28;20499;-73
2022/07/17 05:50:48;;;;;;;3.63;2.85;;;;;;;;;;5046635;28;20512;-73
2022/07/17 05:53:16;;;;;;;4.30;2.97;;;;;;;;;;5047331;28;20413;-73
2022/07/17 05:55:43;;;;;;;3.30;2.90;;;;;;;;;;5046274;28;20408;-73
2022/07/17 05:58:12;;;;;;;3.40;3.10;;;;;;;;;;5046834;28;20417;-73
2022/07/17 06:00:39;;;;;;;3.40;3.10;;;;;;;;;;5050971;28;20437;-73
2022/07/17 06:03:07;;;;;;;3.53;3.00;;;;;;;;;;5066802;28;20438;-73
2022/07/17 06:05:34;;;;;;;4.82;3.50;;;;;;;;;;5066230;28;20428;-72
2022/07/17 06:08:01;;;;;;;4.43;3.10;;;;;;;;;;5066514;28;20513;-73
2022/07/17 06:10:28;;;;;;;3.70;3.00;;;;;;;;;;5065978;28;20826;-73
2022/07/17 06:12:56;;;;;;;4.40;2.93;;;;;;;;;;5066894;28;20427;-73
2022/07/17 06:15:25;;;;;;;3.85;2.90;;;;;;;;;;5065805;28;20924;-71
2022/07/17 06:17:52;;;;;;;4.05;3.00;;;;;;;;;;5066825;28;20419;-73
2022/07/17 06:20:20;;;;;;;3.35;2.83;;;;;;;;;;5065816;28;20919;-73
2022/07/17 06:22:47;;;;;;;3.35;2.95;;;;;;;;;;5066390;28;20426;-73
2022/07/17 06:25:14;;;;;;;3.30;2.70;;;;;;;;;;5066210;28;20430;-72
2022/07/17 06:27:42;;;;;;;3.70;2.65;;;;;;;;;;5066183;28;20435;-73
2022/07/17 06:30:09;;;;;;;3.40;3.03;;;;;;;;;;5066282;28;20760;-73
2022/07/17 06:32:38;;;;;;;3.10;2.70;;;;;;;;;;5054124;28;20417;-72
2022/07/17 06:35:06;;;;;;;4.78;2.65;;;;;;;;;;5046138;28;20682;-72
2022/07/17 06:37:33;;;;;;;4.35;2.70;;;;;;;;;;5046332;28;20500;-72
2022/07/17 06:40:00;;;;;;;3.90;2.72;;;;;;;;;;5045019;28;20423;-73
2022/07/17 06:42:27;;;;;;;4.05;2.85;;;;;;;;;;5046244;28;20413;-72
2022/07/17 06:44:54;;;;;;;4.35;2.92;;;;;;;;;;5046214;28;20424;-72
2022/07/17 06:47:21;;;;;;;4.97;3.28;;;;;;;;;;5046185;28;20788;-73
2022/07/17 06:49:50;;;;;;;3.30;2.97;;;;;;;;;;5045977;28;20440;-73
2022/07/17 06:52:17;;;;;;;4.88;2.95;;;;;;;;;;5046065;28;20413;-72
2022/07/17 06:54:44;;;;;;;4.22;2.90;;;;;;;;;;5046021;28;20512;-73
2022/07/17 06:57:11;;;;;;;4.60;3.10;;;;;;;;;;5046324;28;20521;-73
2022/07/17 06:59:40;;;;;;;3.25;2.50;;;;;;;;;;5069414;23;20524;-76
2022/07/17 07:02:07;;;;;;;6.00;2.47;;;;;;;;;;5047433;28;20901;-74
2022/07/17 07:04:34;;;;;;;4.10;2.50;;;;;;;;;;5048228;28;20421;-75
2022/07/17 07:07:03;;;;;;;3.20;2.50;;;;;;;;;;5048793;28;20429;-75
2022/07/17 07:09:30;;;;;;;3.13;2.23;;;;;;;;;;5049611;28;20436;-74
2022/07/17 07:11:57;;;;;;;3.50;2.40;;;;;;;;;;5048876;28;20428;-76
2022/07/17 07:14:24;;;;;;;2.50;2.30;;;;;;;;;;5048939;28;20427;-75
2022/07/17 07:16:51;;;;;;;3.83;2.50;;;;;;;;;;5049122;28;20489;-75
2022/07/17 07:19:18;;;;;;;4.30;2.40;;;;;;;;;;5049002;28;20413;-75
2022/07/17 07:21:46;;;;;;;4.18;2.20;;;;;;;;;;5049126;28;20492;-75
2022/07/17 07:24:14;;;;;;;4.30;2.70;;;;;;;;;;5048873;28;20467;-75
2022/07/17 07:26:41;;;;;;;3.10;2.03;;;;;;;;;;5048233;28;20436;-75
2022/07/17 07:29:09;;;;;;;4.85;2.40;;;;;;;;;;5048736;28;20523;-75
2022/07/17 07:31:36;;;;;;;3.17;2.55;;;;;;;;;;5049681;28;20413;-74
2022/07/17 07:34:03;;;;;;;3.75;2.70;;;;;;;;;;5048748;28;20436;-74
2022/07/17 07:36:30;;;;;;;3.23;2.20;;;;;;;;;;5048699;28;20529;-75
2022/07/17 07:38:57;;;;;;;3.90;2.33;;;;;;;;;;5049183;28;20413;-75
2022/07/17 07:41:26;;;;;;;3.20;2.20;;;;;;;;;;5047843;28;20420;-75
2022/07/17 07:43:53;;;;;;;3.30;2.00;;;;;;;;;;5048679;28;20423;-75
2022/07/17 07:46:20;;;;;;;3.22;2.10;;;;;;;;;;5049219;28;20432;-74
2022/07/17 07:48:47;;;;;;;3.95;2.20;;;;;;;;;;5049065;28;20433;-75
2022/07/17 07:51:14;;;;;;;3.08;2.20;;;;;;;;;;5049132;28;20413;-75
2022/07/17 07:53:41;;;;;;;4.00;2.00;;;;;;;;;;5053255;28;20911;-74
2022/07/17 07:56:08;;;;;;;4.88;2.10;;;;;;;;;;5051879;28;20429;-75
2022/07/17 07:58:37;;;;;;;3.13;2.08;;;;;;;;;;5052436;28;20417;-75
2022/07/17 08:01:04;;;;;;;4.30;2.00;;;;;;;;;;5051313;28;20444;-75
2022/07/17 08:03:31;;;;;;;3.22;2.00;;;;;;;;;;5064860;28;20468;-74
2022/07/17 08:05:58;;;;;;;2.60;2.10;;;;;;;;;;5074687;28;20408;-74
2022/07/17 08:08:26;;;;;;;2.85;1.67;;;;;;;;;;5075124;28;20492;-76
2022/07/17 08:10:53;;;;;;;4.72;1.90;;;;;;;;;;5061041;28;20920;-76
2022/07/17 08:13:20;;;;;;;4.07;2.37;;;;;;;;;;5053984;28;20486;-75
2022/07/17 08:15:49;;;;;;;3.17;1.90;;;;;;;;;;5053964;28;20413;-77
2022/07/17 08:18:16;;;;;;;3.67;1.50;;;;;;;;;;5054249;28;20420;-76
2022/07/17 08:20:43;;;;;;;2.75;1.70;;;;;;;;;;5053321;28;20481;-75
2022/07/17 08:23:10;;;;;;;3.20;1.75;;;;;;;;;;5062224;28;20413;-75
2022/07/17 08:25:38;;;;;;;3.33;1.63;;;;;;;;;;5062236;28;20431;-74
2022/07/17 08:28:05;;;;;;;3.13;1.70;;;;;;;;;;5074571;28;20565;-77
2022/07/17 08:30:34;;;;;;;3.10;1.83;;;;;;;;;;5073867;28;20409;-75
2022/07/17 08:33:03;;;;;;;2.95;1.50;;;;;;;;;;5049505;28;20415;-78
2022/07/17 08:35:30;;;;;;;3.80;1.70;;;;;;;;;;5036557;28;20423;-76
2022/07/17 08:38:00;;;;;;;4.38;1.70;;;;;;;;;;5037281;28;20423;-76
2022/07/17 08:40:27;;;;;;;3.20;1.63;;;;;;;;;;5034531;28;20445;-76
2022/07/17 08:42:55;;;;;;;2.08;1.70;;;;;;;;;;5032391;28;20764;-77
2022/07/17 08:45:22;;;;;;;2.80;1.65;;;;;;;;;;5030808;28;20522;-76
2022/07/17 08:47:51;;;;;;;2.50;1.60;;;;;;;;;;5030872;28;20506;-76
2022/07/17 08:50:21;;;;;;;2.42;1.27;;;;;;;;;;5030351;28;20415;-76
2022/07/17 08:52:48;;;;;;;3.30;1.40;;;;;;;;;;5031554;28;20430;-76
2022/07/17 08:55:16;;;;;;;2.53;1.30;;;;;;;;;;5031555;28;20418;-78
2022/07/17 08:57:44;;;;;;;3.40;1.40;;;;;;;;;;5031060;28;20531;-76
2022/07/17 09:00:12;;;;;;;2.10;1.20;;;;;;;;;;5030428;28;20736;-76
2022/07/17 09:02:39;;;;;;;2.00;1.20;;;;;;;;;;5031047;28;20430;-76
2022/07/17 09:05:08;;;;;;;2.10;1.30;;;;;;;;;;5031309;28;20430;-76
2022/07/17 09:07:46;;;;;;;3.95;1.50;;;;;;;;;;5031542;28;20415;-76
2022/07/17 09:10:13;;;;;;;2.63;1.40;;;;;;;;;;5029692;28;20982;-75
2022/07/17 09:12:40;;;;;;;2.37;1.53;;;;;;;;;;5031073;28;20465;-74
2022/07/17 09:15:15;;;;;;;3.03;1.30;;;;;;;;;;5030406;28;20895;-76
2022/07/17 09:17:48;;;;;;;2.72;1.10;;;;;;;;;;5031560;28;20421;-74
2022/07/17 09:20:16;;;;;;;2.60;1.40;;;;;;;;;;5031458;28;20470;-75
2022/07/17 09:22:45;;;;;;;2.10;1.17;;;;;;;;;;5032324;28;20854;-74
2022/07/17 09:25:13;;;;;;;2.28;1.10;;;;;;;;;;5031011;28;20511;-73
2022/07/17 09:27:40;;;;;;;2.30;1.15;;;;;;;;;;5031112;28;20764;-75
2022/07/17 09:30:09;;;;;;;2.08;1.25;;;;;;;;;;5030367;28;20427;-74
2022/07/17 09:32:37;;;;;;;2.00;1.10;;;;;;;;;;5031315;28;20502;-74
2022/07/17 09:35:05;;;;;;;3.88;1.13;;;;;;;;;;5031850;28;20414;-74
2022/07/17 09:37:33;;;;;;;2.00;1.30;;;;;;;;;;5035660;28;20450;-74
2022/07/17 09:40:02;;;;;;;3.40;1.30;;;;;;;;;;5030592;28;20500;-74
2022/07/17 09:42:31;;;;;;;1.70;1.00;;;;;;;;;;5030888;28;20411;-74
2022/07/17 09:44:59;;;;;;;2.50;1.30;;;;;;;;;;5031108;28;20427;-75
2022/07/17 09:47:26;;;;;;;2.78;1.30;;;;;;;;;;5030873;28;20415;-76
2022/07/17 09:49:54;;;;;;;1.90;0.90;;;;;;;;;;5030216;28;20442;-76
2022/07/17 09:52:22;;;;;;;2.10;1.10;;;;;;;;;;5030997;28;20419;-75
2022/07/17 09:54:50;;;;;;;3.35;1.40;;;;;;;;;;5030198;28;20505;-74
2022/07/17 09:57:19;;;;;;;3.53;1.70;;;;;;;;;;5031253;28;20426;-76
2022/07/17 09:59:47;;;;;;;2.42;1.17;;;;;;;;;;5030880;28;20419;-75
2022/07/17 10:02:14;;;;;;;1.75;1.30;;;;;;;;;;5030110;28;20415;-76
2022/07/17 10:04:41;;;;;;;2.30;1.00;;;;;;;;;;5030171;28;20946;-73
2022/07/17 10:07:09;;;;;;;2.40;1.20;;;;;;;;;;5031302;28;20481;-74
2022/07/17 10:09:36;;;;;;;3.50;1.27;;;;;;;;;;5048127;28;20427;-76
2022/07/17 10:12:03;;;;;;;4.13;1.33;;;;;;;;;;5053690;28;20527;-73
2022/07/17 10:14:32;;;;;;;3.03;1.30;;;;;;;;;;5053117;28;20411;-71
2022/07/17 10:17:07;;;;;;;2.70;1.35;;;;;;;;;;5039141;28;20414;-73
2022/07/17 10:19:34;;;;;;;2.35;1.33;;;;;;;;;;5029383;28;21031;-76
2022/07/17 10:22:05;;;;;;;2.40;1.40;;;;;;;;;;5029591;28;20875;-73
2022/07/17 10:24:33;;;;;;;2.08;1.65;;;;;;;;;;5029540;28;20433;-74
2022/07/17 10:27:00;;;;;;;1.38;1.00;;;;;;;;;;5029397;28;20496;-74
2022/07/17 10:29:28;;;;;;;3.13;1.20;;;;;;;;;;5029166;28;20442;-75
2022/07/17 10:31:57;;;;;;;2.30;1.10;;;;;;;;;;5029106;28;20427;-75
2022/07/17 10:34:38;;;;;;;2.10;1.10;;;;;;;;;;5029334;28;20422;-74
2022/07/17 10:37:15;;;;;;;1.70;1.10;;;;;;;;;;5031293;28;20477;-75
2022/07/17 10:39:42;;;;;;;1.70;1.30;;;;;;;;;;5029683;28;20411;-74
2022/07/17 10:42:09;;;;;;;2.40;1.50;;;;;;;;;;5031180;28;20449;-76
2022/07/17 10:44:36;;;;;;;2.90;1.10;;;;;;;;;;5033421;28;20493;-72
2022/07/17 10:47:04;;;;;;;2.67;1.27;;;;;;;;;;5033968;28;20423;-73
2022/07/17 10:49:32;;;;;;;2.67;1.10;;;;;;;;;;5030837;28;20430;-74
2022/07/17 10:51:59;;;;;;;2.70;1.10;;;;;;;;;;5047841;28;20434;-73
2022/07/17 10:54:34;;;;;;;2.70;1.20;;;;;;;;;;5043288;28;20421;-72
2022/07/17 10:57:02;;;;;;;4.30;1.20;;;;;;;;;;5045965;28;20445;-74
2022/07/17 10:59:29;;;;;;;1.90;1.00;;;;;;;;;;5029280;28;20422;-73
2022/07/17 11:01:58;;;;;;;2.53;1.15;;;;;;;;;;5029109;28;20415;-73
2022/07/17 11:04:36;;;;;;;2.95;1.08;;;;;;;;;;5029111;28;20492;-74
2022/07/17 11:07:07;;;;;;;2.30;1.20;;;;;;;;;;5029537;28;20429;-74
2022/07/17 11:09:35;;;;;;;1.88;1.00;;;;;;;;;;5028491;28;20423;-73
2022/07/17 11:12:02;;;;;;;2.40;0.90;;;;;;;;;;5029567;28;20514;-75
2022/07/17 11:14:31;;;;;;;2.00;1.00;;;;;;;;;;5029401;28;20419;-76
2022/07/17 11:16:58;;;;;;;2.50;1.20;;;;;;;;;;5030031;28;20438;-74
2022/07/17 11:19:27;;;;;;;2.03;1.15;;;;;;;;;;5029787;28;20418;-74
2022/07/17 11:21:57;;;;;;;2.47;1.08;;;;;;;;;;5029450;28;20424;-74
2022/07/17 11:24:26;;;;;;;4.55;1.20;;;;;;;;;;5029429;28;20423;-74
2022/07/17 11:26:53;;;;;;;4.45;0.90;;;;;;;;;;5031454;28;20429;-75
2022/07/17 11:29:20;;;;;;;2.08;1.00;;;;;;;;;;5033040;28;20430;-74
2022/07/17 11:31:47;;;;;;;1.88;1.10;;;;;;;;;;5032587;28;20422;-74
2022/07/17 11:34:14;;;;;;;2.30;1.10;;;;;;;;;;5033472;28;20425;-74
2022/07/17 11:36:44;;;;;;;1.85;0.90;;;;;;;;;;5033568;28;20410;-74
2022/07/17 11:39:12;;;;;;;2.45;1.23;;;;;;;;;;5033457;28;20437;-75
2022/07/17 11:41:40;;;;;;;1.65;0.90;;;;;;;;;;5032116;28;20802;-75
2022/07/17 11:44:09;;;;;;;1.38;1.20;;;;;;;;;;5032918;28;20427;-75
2022/07/17 11:46:37;;;;;;;1.35;0.80;;;;;;;;;;5032988;28;20468;-74
2022/07/17 11:49:04;;;;;;;1.52;1.00;;;;;;;;;;5032470;28;20426;-74
2022/07/17 11:51:39;;;;;;;1.70;1.10;;;;;;;;;;5032106;28;20426;-75
2022/07/17 11:54:09;;;;;;;2.00;1.40;;;;;;;;;;5031870;28;20425;-75
2022/07/17 11:56:36;;;;;;;1.90;0.93;;;;;;;;;;5032013;28;20517;-75
2022/07/17 11:59:04;;;;;;;2.30;1.00;;;;;;;;;;5038615;28;20410;-73
2022/07/17 12:01:39;;;;;;;2.58;1.00;;;;;;;;;;5036974;28;20762;-75
2022/07/17 12:04:08;;;;;;;2.40;1.00;;;;;;;;;;5036535;28;20916;-75
2022/07/17 12:06:35;;;;;;;2.42;1.25;;;;;;;;;;5037599;28;20422;-76
2022/07/17 12:09:02;;;;;;;2.08;1.20;;;;;;;;;;5037993;28;20399;-73
2022/07/17 12:11:31;;;;;;;1.83;1.00;;;;;;;;;;5034882;28;20419;-75
2022/07/17 12:14:05;;;;;;;2.58;1.20;;;;;;;;;;5038682;28;20441;-75
2022/07/17 12:16:33;;;;;;;2.70;1.10;;;;;;;;;;5031994;28;20435;-75
2022/07/17 12:19:03;;;;;;;2.28;1.00;;;;;;;;;;5037885;28;20423;-75
2022/07/17 12:21:30;;;;;;;1.90;1.00;;;;;;;;;;5036988;28;20473;-73
2022/07/17 12:23:58;;;;;;;1.90;1.00;;;;;;;;;;5033185;28;20423;-74
2022/07/17 12:26:26;;;;;;;2.58;0.90;;;;;;;;;;5044566;28;20958;-74
2022/07/17 12:28:54;;;;;;;1.83;0.98;;;;;;;;;;5042055;28;20490;-74
2022/07/17 12:31:23;;;;;;;2.05;1.05;;;;;;;;;;5044597;28;20441;-74
2022/07/17 12:33:51;;;;;;;2.28;1.10;;;;;;;;;;5034053;28;20509;-74
2022/07/17 12:36:18;;;;;;;2.15;1.17;;;;;;;;;;5033911;28;20525;-75
2022/07/17 12:38:45;;;;;;;1.70;0.85;;;;;;;;;;5031823;28;20438;-75
2022/07/17 12:41:13;;;;;;;1.52;0.80;;;;;;;;;;5030597;28;20442;-75
2022/07/17 12:43:40;;;;;;;1.25;0.80;;;;;;;;;;5031556;28;20422;-75
2022/07/17 12:46:09;;;;;;;1.90;0.90;;;;;;;;;;5031448;28;20441;-75
2022/07/17 12:48:38;;;;;;;1.10;0.90;;;;;;;;;;5031195;28;20876;-75
2022/07/17 12:51:06;;;;;;;1.60;1.00;;;;;;;;;;5031250;28;20774;-74
2022/07/17 12:53:33;;;;;;;1.63;0.90;;;;;;;;;;5032353;28;20859;-74
2022/07/17 12:56:00;;;;;;;2.70;1.00;;;;;;;;;;5031936;28;20433;-74
2022/07/17 12:58:27;;;;;;;2.15;0.90;;;;;;;;;;5032231;28;20422;-74
2022/07/17 13:00:54;;;;;;;1.80;1.00;;;;;;;;;;5030610;28;20419;-74
2022/07/17 13:03:22;;;;;;;2.30;0.88;;;;;;;;;;5062636;23;20445;-76
2022/07/17 13:05:50;;;;;;;2.10;0.80;;;;;;;;;;5047712;28;20425;-76
2022/07/17 13:08:17;;;;;;;2.23;1.10;;;;;;;;;;5048228;28;20435;-77
2022/07/17 13:10:44;;;;;;;2.08;1.10;;;;;;;;;;5051759;23;20765;-76
2022/07/17 13:13:11;;;;;;;2.40;1.10;;;;;;;;;;5047690;28;20429;-76
2022/07/17 13:15:38;;;;;;;2.17;0.80;;;;;;;;;;5047807;28;20431;-76
2022/07/17 13:18:05;;;;;;;3.80;1.23;;;;;;;;;;5048190;28;20425;-76
2022/07/17 13:20:34;;;;;;;2.43;1.00;;;;;;;;;;5047417;28;20413;-75
2022/07/17 13:23:02;;;;;;;2.95;1.05;;;;;;;;;;5047913;28;20751;-76
2022/07/17 13:25:29;;;;;;;1.73;1.08;;;;;;;;;;5047376;28;20944;-75
2022/07/17 13:27:56;;;;;;;2.38;1.00;;;;;;;;;;5047828;28;20413;-76
2022/07/17 13:30:23;;;;;;;1.23;0.80;;;;;;;;;;5047360;28;20456;-76
2022/07/17 13:32:50;;;;;;;2.97;1.05;;;;;;;;;;5047781;28;20413;-76
2022/07/17 13:35:18;;;;;;;2.63;1.10;;;;;;;;;;5047710;28;20425;-76
2022/07/17 13:37:46;;;;;;;2.50;1.20;;;;;;;;;;5048124;28;20470;-76
2022/07/17 13:40:13;;;;;;;2.00;1.20;;;;;;;;;;5046910;28;20434;-76
2022/07/17 13:42:41;;;;;;;2.55;1.20;;;;;;;;;;5047558;28;20761;-76
2022/07/17 13:45:08;;;;;;;2.92;0.80;;;;;;;;;;5048391;28;20417;-76
2022/07/17 13:47:35;;;;;;;1.20;0.80;;;;;;;;;;5048341;28;20432;-76
2022/07/17 13:50:02;;;;;;;1.33;0.70;;;;;;;;;;5046228;28;20446;-76
2022/07/17 13:52:30;;;;;;;1.27;0.90;;;;;;;;;;5047683;28;20754;-76
2022/07/17 13:54:59;;;;;;;1.63;1.10;;;;;;;;;;5046422;28;20413;-77
2022/07/17 13:57:26;;;;;;;1.98;0.98;;;;;;;;;;5047389;28;21028;-77
2022/07/17 13:59:54;;;;;;;2.20;2.10;;;;;;;;;;5047201;28;20432;-76
2022/07/17 14:02:21;;;;;;;2.05;1.10;;;;;;;;;;5047343;28;20435;-76
2022/07/17 14:04:48;;;;;;;1.75;1.00;;;;;;;;;;5047145;28;20796;-74
2022/07/17 14:07:15;;;;;;;1.65;1.00;;;;;;;;;;5047307;28;20429;-74
2022/07/17 14:09:43;;;;;;;2.17;1.10;;;;;;;;;;5046545;28;20425;-74
2022/07/17 14:12:11;;;;;;;3.00;1.05;;;;;;;;;;5047044;28;20896;-76
2022/07/17 14:14:38;;;;;;;2.40;1.10;;;;;;;;;;5046918;28;20903;-74
2022/07/17 14:17:07;;;;;;;2.70;1.00;;;;;;;;;;5046904;28;20484;-74
2022/07/17 14:19:35;;;;;;;1.63;0.98;;;;;;;;;;5046895;28;20423;-74
2022/07/17 14:22:02;;;;;;;2.20;1.07;;;;;;;;;;5046340;28;20832;-74
2022/07/17 14:24:29;;;;;;;2.47;1.20;;;;;;;;;;5046370;28;20517;-74
2022/07/17 14:26:57;;;;;;;1.30;0.70;;;;;;;;;;5046948;28;20418;-76
2022/07/17 14:29:25;;;;;;;1.35;1.13;;;;;;;;;;5046081;28;20451;-74
2022/07/17 14:31:52;;;;;;;2.28;0.80;;;;;;;;;;5046480;28;20428;-74
2022/07/17 14:34:19;;;;;;;2.28;1.00;;;;;;;;;;5046630;28;20853;-74
2022/07/17 14:36:47;;;;;;;2.25;1.00;;;;;;;;;;5046524;28;20421;-76
2022/07/17 14:39:14;;;;;;;2.03;0.80;;;;;;;;;;5046902;28;20460;-75
2022/07/17 14:41:41;;;;;;;1.90;1.00;;;;;;;;;;5045719;28;20413;-75
2022/07/17 14:44:08;;;;;;;1.52;1.10;;;;;;;;;;5046667;28;20416;-75
2022/07/17 14:46:37;;;;;;;1.90;0.90;;;;;;;;;;5046584;28;20425;-75